createdAt,value
2023-03-26T00:01:19.299Z,3.78
2023-03-26T00:03:47.178Z,3.53
2023-03-26T00:06:16.686Z,4.13
2023-03-26T00:08:45.713Z,4.25
2023-03-26T00:11:16.000Z,3.53
2023-03-26T00:13:46.802Z,3.33
2023-03-26T00:16:16.608Z,3.55
2023-03-26T00:18:44.358Z,3.83
2023-03-26T00:21:15.082Z,3.83
2023-03-26T00:26:10.618Z,4.25
2023-03-26T00:28:42.257Z,3.90
2023-03-26T00:31:12.988Z,3.13
2023-03-26T00:33:41.405Z,3.90
2023-03-26T00:36:11.886Z,4.25
2023-03-26T00:41:17.930Z,3.90
2023-03-26T00:43:46.638Z,4.57
2023-03-26T00:46:13.607Z,3.72
2023-03-26T00:48:45.596Z,4.00
2023-03-26T00:51:17.615Z,3.35
2023-03-26T00:53:46.453Z,4.13
2023-03-26T00:56:13.974Z,3.30
2023-03-26T00:58:41.012Z,4.78
2023-03-26T01:01:14.369Z,3.85
2023-03-26T01:03:53.115Z,3.70
2023-03-26T01:06:36.659Z,3.70
2023-03-26T01:09:20.806Z,3.88
2023-03-26T01:11:49.858Z,3.60
2023-03-26T01:14:23.733Z,3.30
2023-03-26T01:16:53.997Z,3.05
2023-03-26T01:19:45.460Z,4.78
2023-03-26T01:22:18.637Z,3.50
2023-03-26T01:24:53.245Z,3.20
2023-03-26T01:27:33.635Z,4.68
2023-03-26T01:30:03.897Z,3.75
2023-03-26T01:32:59.177Z,4.03
2023-03-26T01:35:43.287Z,3.45
2023-03-26T01:38:28.775Z,3.75
2023-03-26T01:41:06.560Z,4.18
2023-03-26T01:44:00.036Z,3.38
2023-03-26T01:46:28.778Z,3.25
2023-03-26T01:48:55.899Z,3.28
2023-03-26T01:51:33.015Z,3.00
2023-03-26T01:54:01.969Z,3.30
2023-03-26T01:57:00.013Z,3.90
2023-03-26T01:59:29.520Z,3.83
2023-03-26T02:02:04.984Z,3.50
2023-03-26T02:04:38.562Z,3.90
2023-03-26T02:07:44.782Z,4.22
2023-03-26T02:10:18.848Z,3.67
2023-03-26T02:12:45.893Z,3.95
2023-03-26T02:15:13.128Z,4.35
2023-03-26T02:17:40.395Z,5.05
2023-03-26T02:20:14.196Z,3.80
2023-03-26T02:22:46.015Z,4.43
2023-03-26T02:25:21.221Z,4.18
2023-03-26T02:27:49.627Z,3.92
2023-03-26T02:30:20.613Z,3.70
2023-03-26T02:32:47.352Z,5.57
2023-03-26T02:35:14.152Z,5.32
2023-03-26T02:37:42.184Z,4.32
2023-03-26T02:40:11.790Z,3.40
2023-03-26T02:42:39.247Z,4.83
2023-03-26T02:45:08.030Z,4.07
2023-03-26T02:47:35.168Z,4.35
2023-03-26T02:50:03.745Z,3.03
2023-03-26T02:52:30.499Z,4.05
2023-03-26T02:54:57.839Z,4.07
2023-03-26T02:57:25.033Z,4.13
2023-03-26T02:59:52.898Z,4.03
2023-03-26T03:02:20.453Z,4.10
2023-03-26T03:04:47.251Z,3.50
2023-03-26T03:07:15.064Z,4.15
2023-03-26T03:09:41.781Z,3.85
2023-03-26T03:12:08.429Z,3.58
2023-03-26T03:14:35.396Z,3.42
2023-03-26T03:17:02.062Z,3.78
2023-03-26T03:19:28.724Z,3.38
2023-03-26T03:21:55.393Z,4.35
2023-03-26T03:24:22.035Z,3.67
2023-03-26T03:26:50.309Z,4.15
2023-03-26T03:29:17.389Z,3.90
2023-03-26T03:31:44.000Z,4.93
2023-03-26T03:34:10.677Z,3.72
2023-03-26T03:36:38.427Z,4.00
2023-03-26T03:39:05.338Z,3.85
2023-03-26T03:41:32.293Z,4.22
2023-03-26T03:43:59.914Z,4.13
2023-03-26T03:46:26.926Z,3.83
2023-03-26T03:48:53.508Z,4.10
2023-03-26T03:51:20.309Z,3.90
2023-03-26T03:53:47.634Z,4.22
2023-03-26T03:56:14.840Z,3.40
2023-03-26T03:58:42.257Z,4.05
2023-03-26T04:01:09.523Z,4.75
2023-03-26T04:03:38.951Z,4.78
2023-03-26T04:06:07.382Z,3.70
2023-03-26T04:08:34.871Z,4.65
2023-03-26T04:11:01.639Z,3.72
2023-03-26T04:13:28.252Z,4.22
2023-03-26T04:15:56.533Z,3.80
2023-03-26T04:18:23.381Z,4.63
2023-03-26T04:20:50.823Z,4.47
2023-03-26T04:23:18.822Z,4.18
2023-03-26T04:25:49.145Z,3.80
2023-03-26T04:28:42.434Z,3.83
2023-03-26T04:31:15.732Z,3.42
2023-03-26T04:33:49.066Z,4.90
2023-03-26T04:36:16.968Z,4.40
2023-03-26T04:38:52.080Z,4.05
2023-03-26T04:41:22.414Z,3.35
2023-03-26T04:43:50.762Z,4.10
2023-03-26T04:46:23.823Z,4.40
2023-03-26T04:48:51.416Z,4.32
2023-03-26T04:51:21.966Z,5.85
2023-03-26T04:56:32.233Z,4.15
2023-03-26T04:59:01.362Z,3.95
2023-03-26T05:01:28.604Z,3.58
2023-03-26T05:03:55.679Z,4.32
2023-03-26T05:06:22.454Z,3.33
2023-03-26T05:08:49.018Z,4.18
2023-03-26T05:11:15.829Z,4.50
2023-03-26T05:13:43.005Z,3.40
2023-03-26T05:16:11.335Z,5.22
2023-03-26T05:18:38.280Z,3.63
2023-03-26T05:21:05.372Z,3.25
2023-03-26T05:23:32.073Z,4.10
2023-03-26T05:25:58.766Z,4.20
2023-03-26T05:28:27.033Z,4.57
2023-03-26T05:30:54.625Z,3.97
2023-03-26T05:33:22.173Z,4.45
2023-03-26T05:35:59.229Z,4.05
2023-03-26T05:38:25.865Z,3.67
2023-03-26T05:40:57.904Z,4.28
2023-03-26T05:43:25.257Z,4.07
2023-03-26T05:45:52.446Z,4.28
2023-03-26T05:48:19.432Z,4.10
2023-03-26T05:50:50.980Z,3.60
2023-03-26T05:53:18.644Z,3.95
2023-03-26T05:55:46.749Z,3.90
2023-03-26T05:58:13.974Z,4.15
2023-03-26T06:00:40.644Z,3.80
2023-03-26T06:03:12.752Z,3.55
2023-03-26T06:05:40.391Z,4.00
2023-03-26T06:08:07.821Z,4.80
2023-03-26T06:10:38.140Z,4.40
2023-03-26T06:13:05.498Z,3.72
2023-03-26T06:15:32.144Z,4.28
2023-03-26T06:17:58.765Z,4.65
2023-03-26T06:20:25.631Z,3.72
2023-03-26T06:22:52.199Z,3.85
2023-03-26T06:25:20.114Z,4.03
2023-03-26T06:27:46.874Z,4.97
2023-03-26T06:30:13.709Z,4.72
2023-03-26T06:32:40.415Z,3.90
2023-03-26T06:35:07.402Z,4.00
2023-03-26T06:37:34.297Z,4.60
2023-03-26T06:40:00.989Z,4.68
2023-03-26T06:43:06.754Z,7.30
2023-03-26T06:45:14.292Z,4.53
2023-03-26T06:47:41.367Z,4.13
2023-03-26T06:50:09.185Z,4.57
2023-03-26T06:52:35.963Z,4.78
2023-03-26T06:55:02.759Z,3.20
2023-03-26T06:57:29.374Z,4.22
2023-03-26T06:59:56.008Z,3.60
2023-03-26T07:02:22.753Z,4.13
2023-03-26T07:04:49.798Z,4.57
2023-03-26T07:07:16.536Z,3.13
2023-03-26T07:09:43.142Z,3.88
2023-03-26T07:12:09.894Z,4.63
2023-03-26T07:14:38.755Z,3.92
2023-03-26T07:17:05.793Z,4.07
2023-03-26T07:19:33.024Z,3.30
2023-03-26T07:22:00.222Z,4.07
2023-03-26T07:24:27.326Z,3.67
2023-03-26T07:27:27.374Z,3.40
2023-03-26T07:30:02.939Z,4.45
2023-03-26T07:32:52.266Z,3.33
2023-03-26T07:35:37.143Z,3.25
2023-03-26T07:38:32.959Z,3.63
2023-03-26T07:41:36.148Z,3.95
2023-03-26T07:44:38.177Z,3.45
2023-03-26T07:47:25.833Z,3.42
2023-03-26T07:49:54.798Z,3.20
2023-03-26T07:52:22.074Z,3.20
2023-03-26T07:54:49.233Z,3.63
2023-03-26T07:57:58.874Z,3.80
2023-03-26T08:00:48.948Z,3.72
2023-03-26T08:03:39.370Z,3.70
2023-03-26T08:06:14.961Z,3.42
2023-03-26T08:09:00.708Z,3.60
2023-03-26T08:11:40.715Z,3.67
2023-03-26T08:14:16.766Z,3.17
2023-03-26T08:16:54.809Z,3.08
2023-03-26T08:19:41.086Z,3.78
2023-03-26T08:22:26.439Z,4.03
2023-03-26T08:25:02.381Z,3.33
2023-03-26T08:27:40.203Z,3.00
2023-03-26T08:30:17.549Z,2.80
2023-03-26T08:32:54.102Z,3.47
2023-03-26T08:35:20.953Z,3.17
2023-03-26T08:37:47.615Z,3.78
2023-03-26T08:40:23.726Z,3.13
2023-03-26T08:42:56.508Z,3.22
2023-03-26T08:45:38.813Z,3.05
2023-03-26T08:48:36.718Z,3.70
2023-03-26T08:51:15.292Z,2.90
2023-03-26T08:53:54.636Z,2.97
2023-03-26T08:56:39.895Z,3.85
2023-03-26T08:59:34.339Z,2.60
2023-03-26T09:02:17.394Z,2.85
2023-03-26T09:05:11.503Z,3.35
2023-03-26T09:08:05.519Z,3.13
2023-03-26T09:10:52.084Z,4.22
2023-03-26T09:13:55.976Z,3.85
2023-03-26T09:16:37.979Z,3.35
2023-03-26T09:19:26.170Z,3.15
2023-03-26T09:22:06.358Z,3.25
2023-03-26T09:24:51.603Z,3.38
2023-03-26T09:27:48.763Z,3.63
2023-03-26T09:30:39.816Z,3.72
2023-03-26T09:33:37.307Z,2.92
2023-03-26T09:36:21.892Z,3.20
2023-03-26T09:39:03.788Z,3.10
2023-03-26T09:41:44.061Z,2.90
2023-03-26T09:44:40.902Z,3.15
2023-03-26T09:47:35.795Z,3.28
2023-03-26T09:50:20.463Z,3.95
2023-03-26T09:53:00.777Z,3.25
2023-03-26T09:55:27.642Z,3.55
2023-03-26T09:58:09.308Z,3.15
2023-03-26T10:01:27.569Z,2.60
2023-03-26T10:04:28.959Z,3.10
2023-03-26T10:07:04.621Z,3.38
2023-03-26T10:09:52.738Z,2.85
2023-03-26T10:12:23.985Z,3.90
2023-03-26T10:15:03.254Z,3.08
2023-03-26T10:17:48.427Z,3.42
2023-03-26T10:20:35.437Z,2.33
2023-03-26T10:23:10.660Z,3.60
2023-03-26T10:25:49.146Z,3.28
2023-03-26T10:28:30.925Z,3.10
2023-03-26T10:31:19.681Z,4.07
2023-03-26T10:34:01.531Z,3.00
2023-03-26T10:37:04.154Z,3.80
2023-03-26T10:39:45.924Z,3.60
2023-03-26T10:42:34.087Z,3.55
2023-03-26T10:45:07.420Z,3.30
2023-03-26T10:47:54.260Z,3.20
2023-03-26T10:50:27.838Z,2.42
2023-03-26T10:53:20.324Z,3.65
2023-03-26T10:55:54.802Z,2.92
2023-03-26T10:58:27.281Z,3.88
2023-03-26T11:01:00.927Z,4.78
2023-03-26T11:03:56.395Z,2.80
2023-03-26T11:06:30.260Z,3.72
2023-03-26T11:09:03.907Z,3.50
2023-03-26T11:11:56.391Z,3.90
2023-03-26T11:14:42.254Z,2.92
2023-03-26T11:17:39.435Z,3.00
2023-03-26T11:20:16.800Z,3.63
2023-03-26T11:23:12.160Z,3.42
2023-03-26T11:25:50.617Z,3.05
2023-03-26T11:28:32.142Z,3.22
2023-03-26T11:31:13.517Z,3.22
2023-03-26T11:33:48.993Z,3.45
2023-03-26T11:36:21.728Z,3.00
2023-03-26T11:38:50.899Z,2.92
2023-03-26T11:41:26.779Z,3.47
2023-03-26T11:44:07.230Z,2.95
2023-03-26T11:46:38.862Z,3.00
2023-03-26T11:49:11.233Z,2.88
2023-03-26T11:51:39.645Z,3.05
2023-03-26T11:54:08.061Z,2.90
2023-03-26T11:57:04.410Z,3.25
2023-03-26T11:59:59.054Z,3.05
2023-03-26T12:02:39.369Z,2.92
2023-03-26T12:05:18.378Z,3.13
2023-03-26T12:07:57.351Z,3.00
2023-03-26T12:10:43.084Z,2.95
2023-03-26T12:13:43.089Z,2.80
2023-03-26T12:16:13.969Z,5.05
2023-03-26T12:18:44.069Z,3.50
2023-03-26T12:21:15.495Z,2.63
2023-03-26T12:24:01.744Z,2.65
2023-03-26T12:26:42.891Z,3.00
2023-03-26T12:29:15.786Z,2.88
2023-03-26T12:31:51.304Z,3.33
2023-03-26T12:34:21.712Z,2.80
2023-03-26T12:36:53.545Z,2.70
2023-03-26T12:40:07.500Z,3.25
2023-03-26T12:44:46.703Z,2.60
2023-03-26T12:45:13.720Z,2.65
2023-03-26T12:48:01.302Z,2.70
2023-03-26T12:50:36.976Z,2.85
2023-03-26T12:53:41.896Z,3.22
2023-03-26T12:56:20.027Z,2.65
2023-03-26T12:59:34.177Z,3.08
2023-03-26T13:02:34.686Z,2.13
2023-03-26T13:05:19.520Z,3.35
2023-03-26T13:08:21.544Z,2.95
2023-03-26T13:11:08.315Z,3.40
2023-03-26T13:13:53.422Z,3.17
2023-03-26T13:16:25.862Z,2.80
2023-03-26T13:19:07.132Z,2.70
2023-03-26T13:21:53.714Z,3.15
2023-03-26T13:24:45.435Z,2.70
2023-03-26T13:27:30.984Z,2.83
2023-03-26T13:30:18.863Z,3.20
2023-03-26T13:33:01.171Z,2.60
2023-03-26T13:36:00.677Z,2.97
2023-03-26T13:38:39.916Z,2.42
2023-03-26T13:41:17.974Z,2.53
2023-03-26T13:44:08.015Z,2.88
2023-03-26T13:46:42.977Z,2.70
2023-03-26T13:49:15.444Z,2.20
2023-03-26T13:51:48.387Z,2.60
2023-03-26T13:54:30.592Z,2.70
2023-03-26T13:57:20.314Z,2.53
2023-03-26T13:59:54.384Z,2.53
2023-03-26T14:02:40.719Z,2.85
2023-03-26T14:05:19.622Z,3.00
2023-03-26T14:07:57.395Z,2.85
2023-03-26T14:10:27.365Z,3.75
2023-03-26T14:13:15.786Z,2.58
2023-03-26T14:15:50.097Z,2.78
2023-03-26T14:18:38.681Z,2.58
2023-03-26T14:21:17.538Z,2.72
2023-03-26T14:23:59.131Z,2.13
2023-03-26T14:26:37.639Z,2.33
2023-03-26T14:29:30.587Z,2.22
2023-03-26T14:32:14.714Z,2.78
2023-03-26T14:35:16.532Z,3.25
2023-03-26T14:38:15.021Z,2.50
2023-03-26T14:41:06.264Z,2.63
2023-03-26T14:43:59.609Z,2.92
2023-03-26T14:46:32.420Z,2.63
2023-03-26T14:49:21.062Z,2.70
2023-03-26T14:52:02.761Z,3.15
2023-03-26T14:54:34.393Z,2.85
2023-03-26T14:57:36.286Z,2.70
2023-03-26T15:00:15.812Z,2.08
2023-03-26T15:03:00.290Z,2.20
2023-03-26T15:05:48.953Z,3.00
2023-03-26T15:08:39.951Z,3.08
2023-03-26T15:11:27.043Z,2.72
2023-03-26T15:14:03.830Z,2.70
2023-03-26T15:16:33.655Z,2.63
2023-03-26T15:19:28.229Z,2.58
2023-03-26T15:22:00.484Z,3.05
2023-03-26T15:24:27.438Z,2.70
2023-03-26T15:27:27.999Z,2.28
2023-03-26T15:30:17.833Z,2.08
2023-03-26T15:32:57.291Z,2.27
2023-03-26T15:35:54.194Z,3.03
2023-03-26T15:38:46.546Z,2.65
2023-03-26T15:41:27.924Z,2.65
2023-03-26T15:44:23.876Z,2.67
2023-03-26T15:47:02.972Z,3.10
2023-03-26T15:49:48.423Z,2.92
2023-03-26T15:52:31.376Z,2.30
2023-03-26T15:55:27.886Z,2.70
2023-03-26T15:58:21.427Z,2.30
2023-03-26T16:00:57.322Z,3.00
2023-03-26T16:03:48.203Z,2.60
2023-03-26T16:06:15.944Z,2.40
2023-03-26T16:09:30.844Z,2.67
2023-03-26T16:11:59.760Z,3.53
2023-03-26T16:14:35.597Z,2.10
2023-03-26T16:17:06.611Z,2.88
2023-03-26T16:19:49.589Z,3.63
2023-03-26T16:22:56.311Z,3.33
2023-03-26T16:25:29.637Z,2.90
2023-03-26T16:28:09.144Z,2.67
2023-03-26T16:30:36.195Z,3.22
2023-03-26T16:33:18.603Z,3.33
2023-03-26T16:36:06.445Z,3.47
2023-03-26T16:39:05.571Z,2.88
2023-03-26T16:41:32.225Z,2.38
2023-03-26T16:44:20.447Z,2.97
2023-03-26T16:47:17.995Z,3.10
2023-03-26T16:50:18.861Z,2.78
2023-03-26T16:52:54.393Z,2.95
2023-03-26T16:55:41.494Z,3.00
2023-03-26T16:58:11.222Z,2.72
2023-03-26T17:00:48.170Z,2.90
2023-03-26T17:03:27.072Z,4.13
2023-03-26T17:05:57.125Z,3.00
2023-03-26T17:08:53.381Z,2.30
2023-03-26T17:11:45.439Z,2.50
2023-03-26T17:14:32.964Z,2.67
2023-03-26T17:17:02.657Z,2.70
2023-03-26T17:19:46.681Z,2.80
2023-03-26T17:22:22.233Z,2.65
2023-03-26T17:24:55.930Z,3.15
2023-03-26T17:27:46.380Z,3.35
2023-03-26T17:30:41.092Z,6.07
2023-03-26T17:33:26.873Z,3.20
2023-03-26T17:36:11.887Z,2.70
2023-03-26T17:38:45.206Z,3.00
2023-03-26T17:41:15.871Z,2.75
2023-03-26T17:43:52.815Z,2.75
2023-03-26T17:46:40.798Z,2.30
2023-03-26T17:49:16.438Z,3.00
2023-03-26T17:52:04.747Z,2.53
2023-03-26T17:54:36.155Z,2.95
2023-03-26T17:57:13.009Z,2.50
2023-03-26T17:59:40.976Z,3.35
2023-03-26T18:02:15.493Z,2.63
2023-03-26T18:04:45.698Z,2.30
2023-03-26T18:07:41.918Z,3.58
2023-03-26T18:10:20.647Z,2.70
2023-03-26T18:13:02.504Z,3.20
2023-03-26T18:15:51.721Z,2.83
2023-03-26T18:18:33.230Z,2.92
2023-03-26T18:21:04.591Z,2.97
2023-03-26T18:23:47.862Z,3.08
2023-03-26T18:26:23.084Z,7.13
2023-03-26T18:29:08.532Z,5.07
2023-03-26T18:31:36.160Z,8.88
2023-03-26T18:34:11.807Z,7.22
2023-03-26T18:36:38.827Z,4.72
2023-03-26T18:39:13.969Z,3.08
2023-03-26T18:41:42.557Z,2.78
2023-03-26T18:44:18.252Z,2.30
2023-03-26T18:46:45.837Z,2.78
2023-03-26T18:49:14.553Z,2.58
2023-03-26T18:51:53.978Z,3.13
2023-03-26T18:54:24.738Z,2.78
2023-03-26T18:56:52.746Z,2.20
2023-03-26T18:59:34.240Z,3.42
2023-03-26T19:02:05.119Z,2.65
2023-03-26T19:04:37.026Z,2.95
2023-03-26T19:07:10.414Z,2.53
2023-03-26T19:09:38.897Z,2.83
2023-03-26T19:12:07.322Z,2.78
2023-03-26T19:14:37.317Z,2.85
2023-03-26T19:17:07.060Z,3.78
2023-03-26T19:19:37.179Z,2.80
2023-03-26T19:22:08.760Z,2.33
2023-03-26T19:24:35.806Z,3.00
2023-03-26T19:27:03.606Z,2.90
2023-03-26T19:29:33.885Z,3.00
2023-03-26T19:32:32.403Z,3.45
2023-03-26T19:35:00.825Z,2.35
2023-03-26T19:37:32.565Z,2.45
2023-03-26T19:40:20.322Z,3.00
2023-03-26T19:42:48.857Z,2.78
2023-03-26T19:45:23.217Z,3.08
2023-03-26T19:48:03.677Z,2.88
2023-03-26T19:50:43.096Z,2.60
2023-03-26T19:53:24.141Z,2.85
2023-03-26T19:56:15.398Z,3.13
2023-03-26T19:58:42.869Z,2.65
2023-03-26T20:01:24.868Z,2.08
2023-03-26T20:03:54.974Z,2.65
2023-03-26T20:06:28.140Z,2.45
2023-03-26T20:09:05.476Z,2.10
2023-03-26T20:11:38.094Z,2.53
2023-03-26T20:14:18.141Z,2.80
2023-03-26T20:16:45.986Z,2.50
2023-03-26T20:19:14.840Z,2.30
2023-03-26T20:21:42.424Z,2.90
2023-03-26T20:24:14.567Z,2.33
2023-03-26T20:26:41.566Z,2.45
2023-03-26T20:29:08.597Z,2.33
2023-03-26T20:31:35.246Z,3.13
2023-03-26T20:34:01.899Z,2.50
2023-03-26T20:36:33.274Z,2.75
2023-03-26T20:39:05.969Z,2.92
2023-03-26T20:41:33.909Z,2.92
2023-03-26T20:44:01.068Z,2.95
2023-03-26T20:46:31.165Z,3.35
2023-03-26T20:51:28.804Z,2.33
2023-03-26T20:53:56.287Z,2.95
2023-03-26T20:56:23.633Z,2.60
2023-03-26T20:59:03.685Z,2.92
2023-03-26T21:01:38.029Z,2.30
2023-03-26T21:04:05.397Z,3.08
2023-03-26T21:06:32.153Z,2.72
2023-03-26T21:08:59.271Z,2.38
2023-03-26T21:11:35.810Z,2.20
2023-03-26T21:14:15.789Z,2.22
2023-03-26T21:16:42.800Z,2.55
2023-03-26T21:19:12.985Z,3.15
2023-03-26T21:21:46.225Z,2.60
2023-03-26T21:24:35.050Z,2.60
2023-03-26T21:27:26.222Z,2.50
2023-03-26T21:29:55.010Z,2.35
2023-03-26T21:32:22.694Z,2.60
2023-03-26T21:34:58.583Z,2.83
2023-03-26T21:37:27.803Z,2.72
2023-03-26T21:39:54.753Z,2.45
2023-03-26T21:42:21.798Z,2.47
2023-03-26T21:44:48.798Z,2.63
2023-03-26T21:47:16.126Z,2.53
2023-03-26T21:49:43.178Z,3.25
2023-03-26T21:52:14.984Z,2.53
2023-03-26T21:54:43.349Z,2.67
2023-03-26T21:57:27.651Z,2.30
2023-03-26T21:59:57.218Z,2.85
2023-03-26T22:03:09.079Z,2.78
2023-03-26T22:06:17.165Z,2.22
2023-03-26T22:08:44.018Z,3.78
2023-03-26T22:11:12.390Z,3.33
2023-03-26T22:13:39.214Z,3.42
2023-03-26T22:16:07.667Z,2.80
2023-03-26T22:18:34.688Z,2.97
2023-03-26T22:21:01.911Z,2.72
2023-03-26T22:23:36.352Z,2.83
2023-03-26T22:26:04.778Z,3.58
2023-03-26T22:28:31.891Z,3.15
2023-03-26T22:30:59.203Z,3.28
2023-03-26T22:33:26.840Z,3.10
2023-03-26T22:35:55.606Z,2.80
2023-03-26T22:38:22.312Z,2.47
2023-03-26T22:40:57.022Z,3.17
2023-03-26T22:43:23.969Z,2.00
2023-03-26T22:45:51.566Z,2.85
2023-03-26T22:48:18.621Z,2.97
2023-03-26T22:50:45.402Z,2.67
2023-03-26T22:53:12.078Z,2.40
2023-03-26T22:55:38.891Z,2.60
2023-03-26T22:58:05.491Z,2.50
2023-03-26T23:00:32.382Z,2.33
2023-03-26T23:03:00.494Z,2.30
2023-03-26T23:05:27.785Z,2.55
2023-03-26T23:07:54.404Z,2.92
2023-03-26T23:10:22.000Z,2.80
2023-03-26T23:12:49.602Z,2.80
2023-03-26T23:15:16.303Z,2.90
2023-03-26T23:17:43.121Z,2.40
2023-03-26T23:20:15.238Z,2.55
2023-03-26T23:22:43.060Z,2.30
2023-03-26T23:25:11.600Z,2.60
2023-03-26T23:27:40.166Z,2.38
2023-03-26T23:30:07.473Z,2.70
2023-03-26T23:32:37.901Z,2.30
2023-03-26T23:35:05.341Z,2.47
2023-03-26T23:37:34.905Z,2.20
2023-03-26T23:40:02.048Z,2.15
2023-03-26T23:42:29.768Z,2.90
2023-03-26T23:44:57.400Z,2.70
2023-03-26T23:47:24.479Z,2.63
2023-03-26T23:49:51.325Z,2.40
2023-03-26T23:52:18.445Z,2.78
2023-03-26T23:54:45.655Z,2.40
2023-03-26T23:57:12.543Z,2.53
2023-03-26T23:59:41.442Z,3.10
